createdAt,value
2023-07-17T00:02:03.013Z,96462.81
2023-07-17T00:04:31.421Z,96457.06
2023-07-17T00:06:59.739Z,96446.78
2023-07-17T00:09:28.078Z,96438.66
2023-07-17T00:11:56.666Z,96439.47
2023-07-17T00:14:25.105Z,96456.78
2023-07-17T00:16:53.741Z,96456.50
2023-07-17T00:19:23.599Z,96458.09
2023-07-17T00:21:51.994Z,96461.97
2023-07-17T00:24:20.363Z,96466.44
2023-07-17T00:26:57.948Z,96462.84
2023-07-17T00:29:29.876Z,96464.59
2023-07-17T00:31:59.394Z,96466.25
2023-07-17T00:34:29.357Z,96472.78
2023-07-17T00:36:58.153Z,96479.81
2023-07-17T00:39:26.546Z,96483.91
2023-07-17T00:41:54.912Z,96485.22
2023-07-17T00:44:23.299Z,96485.09
2023-07-17T00:46:53.731Z,96485.00
2023-07-17T00:49:23.462Z,96471.19
2023-07-17T00:51:54.417Z,96476.88
2023-07-17T00:54:23.866Z,96457.41
2023-07-17T00:56:52.788Z,96470.75
2023-07-17T00:59:22.074Z,96457.88
2023-07-17T01:01:50.777Z,96462.78
2023-07-17T01:04:19.197Z,96457.69
2023-07-17T01:06:47.632Z,96464.19
2023-07-17T01:09:18.879Z,96463.13
2023-07-17T01:11:53.035Z,96475.50
2023-07-17T01:14:22.213Z,96472.38
2023-07-17T01:16:51.305Z,96480.50
2023-07-17T01:19:19.752Z,96478.03
2023-07-17T01:21:53.316Z,96479.28
2023-07-17T01:24:24.693Z,96478.31
2023-07-17T01:26:53.746Z,96480.16
2023-07-17T01:29:22.108Z,96477.41
2023-07-17T01:31:50.495Z,96483.41
2023-07-17T01:34:18.959Z,96475.81
2023-07-17T01:36:47.470Z,96479.41
2023-07-17T01:39:16.021Z,96481.59
2023-07-17T01:41:45.833Z,96480.28
2023-07-17T01:44:14.283Z,96477.03
2023-07-17T01:46:42.702Z,96474.00
2023-07-17T01:49:11.230Z,96470.66
2023-07-17T01:51:39.717Z,96472.72
2023-07-17T01:54:08.266Z,96466.06
2023-07-17T01:56:36.678Z,96460.56
2023-07-17T01:59:06.510Z,96452.94
2023-07-17T02:01:35.120Z,96465.97
2023-07-17T02:04:04.096Z,96464.38
2023-07-17T02:06:32.568Z,96462.94
2023-07-17T02:09:01.023Z,96460.94
2023-07-17T02:11:31.840Z,96463.63
2023-07-17T02:14:00.453Z,96463.41
2023-07-17T02:16:37.679Z,96461.78
2023-07-17T02:19:06.139Z,96468.81
2023-07-17T02:21:34.585Z,96469.31
2023-07-17T02:24:03.067Z,96463.19
2023-07-17T02:26:31.525Z,96460.56
2023-07-17T02:28:59.962Z,96454.47
2023-07-17T02:31:29.152Z,96448.03
2023-07-17T02:33:59.003Z,96446.22
2023-07-17T02:36:27.378Z,96460.06
2023-07-17T02:38:55.789Z,96455.63
2023-07-17T02:41:34.185Z,96453.19
2023-07-17T02:44:02.680Z,96451.00
2023-07-17T02:46:31.186Z,96454.19
2023-07-17T02:49:01.019Z,96455.75
2023-07-17T02:51:29.645Z,96461.19
2023-07-17T02:53:58.105Z,96459.84
2023-07-17T02:56:26.744Z,96463.84
2023-07-17T02:58:55.418Z,96473.66
2023-07-17T03:01:23.974Z,96480.78
2023-07-17T03:03:52.391Z,96480.19
2023-07-17T03:06:22.542Z,96468.34
2023-07-17T03:08:50.986Z,96467.91
2023-07-17T03:11:19.673Z,96465.72
2023-07-17T03:13:48.219Z,96462.84
2023-07-17T03:16:16.745Z,96454.25
2023-07-17T03:18:45.193Z,96451.56
2023-07-17T03:21:13.821Z,96450.31
2023-07-17T03:23:43.640Z,96450.00
2023-07-17T03:26:12.147Z,96452.94
2023-07-17T03:28:40.527Z,96458.03
2023-07-17T03:31:12.136Z,96456.16
2023-07-17T03:33:45.095Z,96456.41
2023-07-17T03:36:13.489Z,96455.84
2023-07-17T03:38:43.718Z,96451.31
2023-07-17T03:41:13.798Z,96459.34
2023-07-17T03:43:42.249Z,96460.16
2023-07-17T03:46:10.625Z,96462.84
2023-07-17T03:48:40.986Z,96458.03
2023-07-17T03:51:09.441Z,96452.13
2023-07-17T03:53:37.831Z,96454.41
2023-07-17T03:56:07.756Z,96448.00
2023-07-17T03:58:36.123Z,96448.59
2023-07-17T04:01:04.572Z,96445.38
2023-07-17T04:03:33.078Z,96446.75
2023-07-17T04:06:01.595Z,96447.59
2023-07-17T04:08:30.012Z,96446.03
2023-07-17T04:10:58.369Z,96456.31
2023-07-17T04:13:30.705Z,96455.84
2023-07-17T04:16:02.424Z,96461.81
2023-07-17T04:18:30.897Z,96467.78
2023-07-17T04:20:59.249Z,96470.22
2023-07-17T04:23:27.658Z,96467.56
2023-07-17T04:25:56.023Z,96465.19
2023-07-17T04:28:26.067Z,96473.59
2023-07-17T04:30:56.155Z,96476.00
2023-07-17T04:33:24.551Z,96492.50
2023-07-17T04:35:52.934Z,96511.00
2023-07-17T04:38:21.325Z,96550.69
2023-07-17T04:40:49.799Z,96564.44
2023-07-17T04:43:18.202Z,96555.09
2023-07-17T04:45:46.568Z,96551.44
2023-07-17T04:48:16.352Z,96536.91
2023-07-17T04:50:47.044Z,96548.38
2023-07-17T04:53:16.569Z,96568.66
2023-07-17T04:55:45.041Z,96571.97
2023-07-17T04:58:13.430Z,96585.75
2023-07-17T05:00:41.917Z,96585.56
2023-07-17T05:03:11.246Z,96592.03
2023-07-17T05:05:41.639Z,96593.91
2023-07-17T05:08:10.100Z,96597.19
2023-07-17T05:10:38.454Z,96593.56
2023-07-17T05:13:06.846Z,96604.31
2023-07-17T05:15:35.386Z,96609.56
2023-07-17T05:18:04.354Z,96622.78
2023-07-17T05:20:32.828Z,96619.34
2023-07-17T05:23:02.615Z,96617.59
2023-07-17T05:25:31.283Z,96642.50
2023-07-17T05:27:59.667Z,96655.94
2023-07-17T05:30:28.106Z,96664.00
2023-07-17T05:32:56.648Z,96682.16
2023-07-17T05:35:25.147Z,96693.13
2023-07-17T05:37:55.707Z,96692.75
2023-07-17T05:40:25.641Z,96685.97
2023-07-17T05:42:54.106Z,96671.50
2023-07-17T05:45:22.641Z,96692.16
2023-07-17T05:47:51.047Z,96676.72
2023-07-17T05:50:20.345Z,96683.06
2023-07-17T05:52:48.730Z,96676.44
2023-07-17T05:55:17.203Z,96686.22
2023-07-17T05:57:47.061Z,96682.31
2023-07-17T06:00:17.343Z,96674.25
2023-07-17T06:02:46.756Z,96682.03
2023-07-17T06:05:16.072Z,96682.50
2023-07-17T06:07:44.693Z,96697.38
2023-07-17T06:10:13.967Z,96701.63
2023-07-17T06:12:42.510Z,96712.06
2023-07-17T06:15:14.585Z,96715.44
2023-07-17T06:17:43.305Z,96722.84
2023-07-17T06:20:12.108Z,96721.31
2023-07-17T06:22:40.722Z,96730.69
2023-07-17T06:25:09.909Z,96735.50
2023-07-17T06:27:38.333Z,96743.00
2023-07-17T06:30:08.146Z,96748.34
2023-07-17T06:32:38.223Z,96747.03
2023-07-17T06:35:07.497Z,96749.72
2023-07-17T06:37:35.929Z,96752.34
2023-07-17T06:40:06.159Z,96753.97
2023-07-17T06:42:35.291Z,96751.03
2023-07-17T06:45:03.969Z,96753.13
2023-07-17T06:47:37.408Z,96757.91
2023-07-17T06:50:10.452Z,96758.03
2023-07-17T06:52:39.811Z,96768.97
2023-07-17T06:55:10.315Z,96762.50
2023-07-17T06:57:38.922Z,96776.22
2023-07-17T07:00:09.249Z,96767.88
2023-07-17T07:02:39.697Z,96776.34
2023-07-17T07:05:10.666Z,96776.09
2023-07-17T07:07:39.315Z,96781.28
2023-07-17T07:10:19.226Z,96781.28
2023-07-17T07:12:50.524Z,96789.13
2023-07-17T07:15:19.273Z,96788.44
2023-07-17T07:17:47.734Z,96785.47
2023-07-17T07:20:19.817Z,96782.53
2023-07-17T07:22:48.244Z,96781.59
2023-07-17T07:25:16.891Z,96787.59
2023-07-17T07:27:45.313Z,96793.31
2023-07-17T07:30:13.976Z,96784.16
2023-07-17T07:32:43.099Z,96793.44
2023-07-17T07:35:11.780Z,96793.53
2023-07-17T07:37:42.271Z,96795.28
2023-07-17T07:40:13.171Z,96800.31
2023-07-17T07:42:41.859Z,96800.41
2023-07-17T07:45:11.024Z,96808.72
2023-07-17T07:47:39.701Z,96804.81
2023-07-17T07:50:09.150Z,96797.41
2023-07-17T07:52:42.146Z,96799.03
2023-07-17T07:55:11.139Z,96805.34
2023-07-17T07:57:39.683Z,96804.72
2023-07-17T08:00:09.203Z,96800.31
2023-07-17T08:02:37.696Z,96798.94
2023-07-17T08:05:06.765Z,96795.09
2023-07-17T08:07:38.076Z,96796.06
2023-07-17T08:10:17.815Z,96778.72
2023-07-17T08:12:46.345Z,96787.22
2023-07-17T08:15:14.833Z,96788.47
2023-07-17T08:17:53.465Z,96789.34
2023-07-17T08:20:21.987Z,96782.88
2023-07-17T08:22:56.277Z,96781.81
2023-07-17T08:25:26.331Z,96781.22
2023-07-17T08:27:56.310Z,96785.84
2023-07-17T08:30:24.698Z,96785.41
2023-07-17T08:32:53.490Z,96784.16
2023-07-17T08:35:21.948Z,96788.00
2023-07-17T08:37:50.658Z,96791.28
2023-07-17T08:40:19.028Z,96785.03
2023-07-17T08:42:52.685Z,96786.09
2023-07-17T08:45:24.833Z,96782.22
2023-07-17T08:47:54.555Z,96790.25
2023-07-17T08:50:24.272Z,96796.56
2023-07-17T08:52:53.828Z,96788.69
2023-07-17T08:55:23.191Z,96791.69
2023-07-17T08:57:55.215Z,96791.78
2023-07-17T09:00:25.396Z,96791.47
2023-07-17T09:02:53.940Z,96789.75
2023-07-17T09:05:22.640Z,96783.81
2023-07-17T09:07:51.140Z,96789.88
2023-07-17T09:10:21.363Z,96778.84
2023-07-17T09:12:54.814Z,96768.63
2023-07-17T09:15:29.155Z,96765.53
2023-07-17T09:18:05.979Z,96769.22
2023-07-17T09:20:34.506Z,96768.16
2023-07-17T09:23:04.579Z,96771.50
2023-07-17T09:25:33.424Z,96768.13
2023-07-17T09:28:03.167Z,96755.00
2023-07-17T09:30:31.596Z,96763.47
2023-07-17T09:33:07.401Z,96765.34
2023-07-17T09:35:37.586Z,96768.31
2023-07-17T09:38:11.178Z,96758.19
2023-07-17T09:40:39.700Z,96769.41
2023-07-17T09:43:09.576Z,96758.75
2023-07-17T09:45:38.746Z,96759.66
2023-07-17T09:48:07.888Z,96757.25
2023-07-17T09:50:38.791Z,96758.50
2023-07-17T09:53:10.367Z,96760.53
2023-07-17T09:55:40.247Z,96767.19
2023-07-17T09:58:10.840Z,96759.03
2023-07-17T10:00:41.998Z,96763.31
2023-07-17T10:03:11.654Z,96763.31
2023-07-17T10:05:40.725Z,96762.00
2023-07-17T10:08:11.460Z,96758.19
2023-07-17T10:10:41.978Z,96763.13
2023-07-17T10:13:13.069Z,96765.84
2023-07-17T10:15:41.836Z,96764.16
2023-07-17T10:18:13.895Z,96751.09
2023-07-17T10:20:54.016Z,96744.56
2023-07-17T10:23:26.246Z,96741.16
2023-07-17T10:26:08.020Z,96746.16
2023-07-17T10:28:38.630Z,96740.94
2023-07-17T10:31:18.163Z,96739.91
2023-07-17T10:33:50.827Z,96734.81
2023-07-17T10:36:19.888Z,96728.38
2023-07-17T10:38:54.305Z,96738.94
2023-07-17T10:41:28.737Z,96732.72
2023-07-17T10:44:17.139Z,96727.09
2023-07-17T10:46:48.180Z,96733.97
2023-07-17T10:49:17.801Z,96730.72
2023-07-17T10:51:48.281Z,96724.72
2023-07-17T10:54:18.069Z,96725.28
2023-07-17T10:56:48.559Z,96726.53
2023-07-17T10:59:20.648Z,96712.91
2023-07-17T11:01:52.906Z,96717.50
2023-07-17T11:04:21.497Z,96715.91
2023-07-17T11:06:49.944Z,96720.94
2023-07-17T11:09:22.494Z,96708.75
2023-07-17T11:11:51.433Z,96704.69
2023-07-17T11:14:21.494Z,96709.84
2023-07-17T11:16:52.230Z,96705.25
2023-07-17T11:19:20.995Z,96700.06
2023-07-17T11:21:51.284Z,96692.47
2023-07-17T11:24:20.173Z,96698.50
2023-07-17T11:26:49.249Z,96682.44
2023-07-17T11:29:17.783Z,96684.59
2023-07-17T11:31:47.641Z,96679.16
2023-07-17T11:34:16.093Z,96679.69
2023-07-17T11:36:46.060Z,96673.72
2023-07-17T11:39:16.622Z,96662.25
2023-07-17T11:41:48.225Z,96666.06
2023-07-17T11:44:18.232Z,96674.22
2023-07-17T11:46:48.230Z,96677.50
2023-07-17T11:49:16.761Z,96682.94
2023-07-17T11:51:48.384Z,96671.50
2023-07-17T11:54:16.871Z,96668.78
2023-07-17T11:56:46.402Z,96668.75
2023-07-17T11:59:18.894Z,96657.00
2023-07-17T12:01:48.956Z,96655.34
2023-07-17T12:04:18.987Z,96657.81
2023-07-17T12:06:47.714Z,96664.00
2023-07-17T12:09:16.711Z,96665.31
2023-07-17T12:11:46.310Z,96660.47
2023-07-17T12:14:15.791Z,96659.19
2023-07-17T12:16:44.343Z,96659.47
2023-07-17T12:19:14.377Z,96655.41
2023-07-17T12:21:43.157Z,96651.28
2023-07-17T12:24:14.757Z,96653.72
2023-07-17T12:26:44.000Z,96643.94
2023-07-17T12:29:12.753Z,96644.81
2023-07-17T12:31:41.183Z,96643.44
2023-07-17T12:34:10.883Z,96631.78
2023-07-17T12:36:40.660Z,96643.19
2023-07-17T12:39:15.947Z,96630.63
2023-07-17T12:41:44.747Z,96631.94
2023-07-17T12:44:15.947Z,96635.19
2023-07-17T12:46:44.973Z,96627.00
2023-07-17T12:49:14.282Z,96621.25
2023-07-17T12:51:44.319Z,96614.69
2023-07-17T12:54:13.288Z,96613.56
2023-07-17T12:56:42.318Z,96603.66
2023-07-17T12:59:10.758Z,96609.84
2023-07-17T13:01:39.448Z,96610.56
2023-07-17T13:04:07.896Z,96603.34
2023-07-17T13:06:41.270Z,96598.66
2023-07-17T13:09:11.084Z,96581.91
2023-07-17T13:11:39.687Z,96591.38
2023-07-17T13:14:09.628Z,96585.94
2023-07-17T13:16:38.141Z,96590.47
2023-07-17T13:19:06.546Z,96578.63
2023-07-17T13:21:36.278Z,96575.53
2023-07-17T13:24:05.254Z,96565.59
2023-07-17T13:26:36.204Z,96572.63
2023-07-17T13:29:08.484Z,96575.06
2023-07-17T13:31:37.460Z,96565.25
2023-07-17T13:34:05.948Z,96563.56
2023-07-17T13:36:34.391Z,96573.00
2023-07-17T13:39:03.377Z,96569.84
2023-07-17T13:41:44.155Z,96560.25
2023-07-17T13:44:15.119Z,96565.94
2023-07-17T13:46:44.993Z,96557.31
2023-07-17T13:49:14.740Z,96558.66
2023-07-17T13:51:44.032Z,96559.41
2023-07-17T13:54:12.431Z,96570.38
2023-07-17T13:59:13.564Z,96565.72
2023-07-17T14:01:42.105Z,96564.31
2023-07-17T14:04:10.716Z,96563.09
2023-07-17T14:06:39.334Z,96555.72
2023-07-17T14:09:07.860Z,96552.81
2023-07-17T14:11:36.290Z,96545.91
2023-07-17T14:14:09.971Z,96536.78
2023-07-17T14:16:38.513Z,96543.94
2023-07-17T14:19:06.932Z,96542.03
2023-07-17T14:21:35.326Z,96539.81
2023-07-17T14:24:04.575Z,96534.69
2023-07-17T14:26:33.105Z,96537.72
2023-07-17T14:29:01.612Z,96530.13
2023-07-17T14:31:31.593Z,96522.91
2023-07-17T14:34:00.217Z,96526.56
2023-07-17T14:36:28.700Z,96526.25
2023-07-17T14:38:57.317Z,96518.53
2023-07-17T14:41:25.723Z,96525.47
2023-07-17T14:43:54.220Z,96527.59
2023-07-17T14:46:22.948Z,96517.31
2023-07-17T14:48:52.982Z,96506.38
2023-07-17T14:51:21.654Z,96498.16
2023-07-17T14:53:50.478Z,96495.97
2023-07-17T14:56:19.097Z,96515.75
2023-07-17T14:58:47.690Z,96518.72
2023-07-17T15:01:16.200Z,96511.97
2023-07-17T15:03:44.684Z,96506.81
2023-07-17T15:06:14.957Z,96499.69
2023-07-17T15:08:43.467Z,96518.03
2023-07-17T15:11:12.127Z,96512.84
2023-07-17T15:13:40.569Z,96519.34
2023-07-17T15:16:09.042Z,96527.56
2023-07-17T15:18:37.676Z,96524.31
2023-07-17T15:21:06.243Z,96516.09
2023-07-17T15:23:36.117Z,96523.00
2023-07-17T15:26:04.526Z,96519.69
2023-07-17T15:28:32.988Z,96519.38
2023-07-17T15:31:01.476Z,96509.28
2023-07-17T15:33:30.442Z,96518.09
2023-07-17T15:35:58.931Z,96499.88
2023-07-17T15:38:27.421Z,96502.94
2023-07-17T15:40:58.583Z,96486.66
2023-07-17T15:43:27.171Z,96482.75
2023-07-17T15:45:55.615Z,96503.19
2023-07-17T15:48:24.045Z,96500.59
2023-07-17T15:50:52.560Z,96496.47
2023-07-17T15:53:21.597Z,96499.66
2023-07-17T15:55:51.293Z,96486.72
2023-07-17T15:58:21.057Z,96487.09
2023-07-17T16:00:49.649Z,96488.53
2023-07-17T16:03:18.174Z,96491.06
2023-07-17T16:05:46.687Z,96488.03
2023-07-17T16:08:15.136Z,96486.03
2023-07-17T16:10:43.982Z,96482.50
2023-07-17T16:13:12.327Z,96486.28
2023-07-17T16:15:42.151Z,96483.25
2023-07-17T16:18:10.732Z,96497.25
2023-07-17T16:20:39.274Z,96493.72
2023-07-17T16:23:09.423Z,96487.06
2023-07-17T16:25:38.064Z,96488.19
2023-07-17T16:28:06.560Z,96491.50
2023-07-17T16:30:35.049Z,96495.50
2023-07-17T16:33:05.110Z,96488.94
2023-07-17T16:35:33.746Z,96494.63
2023-07-17T16:38:10.804Z,96496.63
2023-07-17T16:40:39.236Z,96487.81
2023-07-17T16:43:07.720Z,96488.25
2023-07-17T16:45:36.271Z,96489.28
2023-07-17T16:48:06.612Z,96486.84
2023-07-17T16:50:35.117Z,96495.28
2023-07-17T16:53:03.958Z,96500.16
2023-07-17T16:55:34.486Z,96495.88
2023-07-17T16:58:03.040Z,96491.47
2023-07-17T17:00:32.156Z,96495.25
2023-07-17T17:03:01.000Z,96495.56
2023-07-17T17:05:31.547Z,96497.03
2023-07-17T17:08:00.032Z,96504.81
2023-07-17T17:10:28.557Z,96510.44
2023-07-17T17:12:57.045Z,96505.25
2023-07-17T17:15:29.234Z,96512.09
2023-07-17T17:17:57.930Z,96493.38
2023-07-17T17:20:34.568Z,96493.47
2023-07-17T17:23:03.068Z,96501.28
2023-07-17T17:25:31.536Z,96499.75
2023-07-17T17:28:00.129Z,96510.53
2023-07-17T17:30:29.410Z,96507.47
2023-07-17T17:33:05.859Z,96506.53
2023-07-17T17:35:35.877Z,96508.00
2023-07-17T17:38:05.031Z,96513.50
2023-07-17T17:40:33.456Z,96514.88
2023-07-17T17:43:02.097Z,96512.31
2023-07-17T17:45:30.745Z,96513.03
2023-07-17T17:47:59.430Z,96510.63
2023-07-17T17:50:27.952Z,96513.75
2023-07-17T17:52:59.279Z,96522.53
2023-07-17T17:55:27.789Z,96520.28
2023-07-17T17:57:56.515Z,96526.72
2023-07-17T18:00:24.980Z,96526.66
2023-07-17T18:02:54.109Z,96530.94
2023-07-17T18:05:23.007Z,96525.91
2023-07-17T18:07:51.490Z,96524.91
2023-07-17T18:10:21.338Z,96523.09
2023-07-17T18:12:49.812Z,96519.91
2023-07-17T18:15:18.325Z,96541.50
2023-07-17T18:17:58.252Z,96532.88
2023-07-17T18:20:29.334Z,96541.41
2023-07-17T18:22:57.938Z,96537.72
2023-07-17T18:25:27.864Z,96548.69
2023-07-17T18:27:56.314Z,96547.34
2023-07-17T18:30:24.785Z,96554.19
2023-07-17T18:32:53.278Z,96547.91
2023-07-17T18:35:21.973Z,96555.00
2023-07-17T18:37:53.259Z,96555.59
2023-07-17T18:40:21.716Z,96545.78
2023-07-17T18:42:51.470Z,96533.28
2023-07-17T18:45:20.158Z,96547.16
2023-07-17T18:47:49.042Z,96553.44
2023-07-17T18:50:17.519Z,96559.19
2023-07-17T18:52:46.234Z,96564.41
2023-07-17T18:55:14.636Z,96567.38
2023-07-17T18:57:43.253Z,96574.16
2023-07-17T19:00:14.620Z,96571.75
2023-07-17T19:02:47.914Z,96579.09
2023-07-17T19:05:16.384Z,96581.53
2023-07-17T19:07:44.856Z,96582.63
2023-07-17T19:10:13.336Z,96582.63
2023-07-17T19:12:43.927Z,96583.44
2023-07-17T19:15:13.998Z,96582.63
2023-07-17T19:17:42.650Z,96586.13
2023-07-17T19:20:12.270Z,96591.28
2023-07-17T19:22:41.147Z,96595.06
2023-07-17T19:25:10.650Z,96599.69
2023-07-17T19:27:39.361Z,96612.22
2023-07-17T19:30:09.289Z,96610.88
2023-07-17T19:32:43.712Z,96607.00
2023-07-17T19:35:12.408Z,96617.06
2023-07-17T19:37:41.129Z,96618.13
2023-07-17T19:40:11.389Z,96617.56
2023-07-17T19:42:49.792Z,96617.53
2023-07-17T19:45:18.343Z,96629.78
2023-07-17T19:47:48.250Z,96629.75
2023-07-17T19:50:16.785Z,96627.53
2023-07-17T19:52:45.279Z,96629.94
2023-07-17T19:55:13.719Z,96629.38
2023-07-17T19:57:42.158Z,96633.97
2023-07-17T20:00:11.786Z,96638.31
2023-07-17T20:02:40.756Z,96642.84
2023-07-17T20:05:10.764Z,96646.59
2023-07-17T20:07:39.262Z,96647.66
2023-07-17T20:10:09.787Z,96655.78
2023-07-17T20:12:38.457Z,96656.06
2023-07-17T20:15:08.897Z,96659.06
2023-07-17T20:17:39.806Z,96667.75
2023-07-17T20:20:11.705Z,96675.63
2023-07-17T20:22:41.233Z,96675.13
2023-07-17T20:25:10.884Z,96670.25
2023-07-17T20:27:42.995Z,96671.59
2023-07-17T20:30:16.249Z,96681.88
2023-07-17T20:32:45.059Z,96680.25
2023-07-17T20:35:27.658Z,96678.34
2023-07-17T20:37:59.027Z,96692.72
2023-07-17T20:40:28.143Z,96695.44
2023-07-17T20:42:58.374Z,96696.53
2023-07-17T20:45:34.397Z,96697.03
2023-07-17T20:48:03.377Z,96700.78
2023-07-17T20:50:33.383Z,96698.88
2023-07-17T20:53:01.838Z,96703.19
2023-07-17T20:55:40.772Z,96706.16
2023-07-17T20:58:09.168Z,96706.09
2023-07-17T21:00:37.778Z,96715.34
2023-07-17T21:03:06.579Z,96715.91
2023-07-17T21:05:41.493Z,96717.00
2023-07-17T21:08:15.340Z,96719.72
2023-07-17T21:10:43.977Z,96724.91
2023-07-17T21:13:12.432Z,96727.34
2023-07-17T21:15:40.823Z,96734.94
2023-07-17T21:18:09.277Z,96731.69
2023-07-17T21:20:39.050Z,96729.22
2023-07-17T21:23:07.609Z,96734.16
2023-07-17T21:25:36.522Z,96745.81
2023-07-17T21:28:14.898Z,96746.91
2023-07-17T21:30:44.516Z,96747.97
2023-07-17T21:33:13.140Z,96746.34
2023-07-17T21:35:42.883Z,96741.97
2023-07-17T21:38:11.890Z,96757.13
2023-07-17T21:40:40.773Z,96768.47
2023-07-17T21:43:09.146Z,96784.19
2023-07-17T21:45:37.592Z,96785.25
2023-07-17T21:48:06.950Z,96779.50
2023-07-17T21:50:35.515Z,96780.84
2023-07-17T21:53:06.004Z,96777.88
2023-07-17T21:55:34.758Z,96778.13
2023-07-17T21:58:03.491Z,96780.22
2023-07-17T22:00:34.572Z,96779.13
2023-07-17T22:03:03.438Z,96782.56
2023-07-17T22:05:32.358Z,96782.25
2023-07-17T22:08:00.815Z,96789.84
2023-07-17T22:10:30.691Z,96783.56
2023-07-17T22:12:59.542Z,96782.44
2023-07-17T22:15:28.075Z,96781.56
2023-07-17T22:17:56.548Z,96791.25
2023-07-17T22:20:25.430Z,96786.59
2023-07-17T22:22:53.927Z,96794.38
2023-07-17T22:25:22.658Z,96799.78
2023-07-17T22:27:52.486Z,96799.94
2023-07-17T22:30:20.889Z,96803.50
2023-07-17T22:32:49.496Z,96807.50
2023-07-17T22:35:18.483Z,96803.78
2023-07-17T22:37:47.595Z,96807.91
2023-07-17T22:40:15.982Z,96817.59
2023-07-17T22:42:44.586Z,96812.13
2023-07-17T22:45:14.319Z,96806.63
2023-07-17T22:47:42.755Z,96819.34
2023-07-17T22:50:12.058Z,96818.34
2023-07-17T22:52:40.529Z,96819.22
2023-07-17T22:55:10.615Z,96816.03
2023-07-17T22:57:39.426Z,96826.63
2023-07-17T23:00:12.053Z,96829.31
2023-07-17T23:02:41.855Z,96827.44
2023-07-17T23:05:11.160Z,96829.56
2023-07-17T23:07:39.631Z,96827.69
2023-07-17T23:10:11.604Z,96822.25
2023-07-17T23:12:41.788Z,96831.47
2023-07-17T23:15:12.379Z,96836.28
2023-07-17T23:17:44.051Z,96846.00
2023-07-17T23:20:13.012Z,96844.38
2023-07-17T23:22:42.490Z,96845.75
2023-07-17T23:25:11.963Z,96850.94
2023-07-17T23:27:43.318Z,96849.59
2023-07-17T23:30:12.316Z,96865.94
2023-07-17T23:32:42.285Z,96859.19
2023-07-17T23:35:11.486Z,96863.53
2023-07-17T23:37:39.889Z,96857.81
2023-07-17T23:40:10.053Z,96864.84
2023-07-17T23:42:41.254Z,96859.75
2023-07-17T23:45:13.040Z,96858.13
2023-07-17T23:47:42.861Z,96857.16
2023-07-17T23:50:12.182Z,96861.97
2023-07-17T23:52:44.032Z,96859.66
2023-07-17T23:55:13.677Z,96857.72
2023-07-17T23:57:42.328Z,96867.53
